Time;durP1;ratioP1;P1;durP2;ratioP2;P2;SDS_P1;SDS_P2;PMS_P1;PMS_P2;Temp;Humidity;BMP_temperature;BMP_pressure;BME280_temperature;BME280_humidity;BME280_pressure;Samples;Min_cycle;Max_cycle;Signal;HPM_P1;HPM_P2
2022/10/28 00:00:03;;;;;;;16.48;6.88;;;14.60;99.90;;;;;;5053170;28;20037;-79
2022/10/28 00:02:29;;;;;;;10.50;7.00;;;14.60;99.90;;;;;;5051348;28;20064;-79
2022/10/28 00:04:54;;;;;;;12.48;6.82;;;14.60;99.90;;;;;;5051694;28;20394;-78
2022/10/28 00:07:20;;;;;;;18.92;7.35;;;14.60;99.90;;;;;;5056490;28;20072;-79
2022/10/28 00:09:45;;;;;;;14.32;7.00;;;14.60;99.90;;;;;;5056323;28;20051;-79
2022/10/28 00:12:11;;;;;;;16.77;7.57;;;14.60;99.90;;;;;;5047496;28;20025;-78
2022/10/28 00:14:36;;;;;;;18.30;7.32;;;14.60;99.90;;;;;;5051602;28;20048;-79
2022/10/28 00:17:02;;;;;;;15.23;7.22;;;14.60;99.90;;;;;;5051085;28;20056;-78
2022/10/28 00:19:28;;;;;;;17.73;7.03;;;14.60;99.90;;;;;;5052185;28;20031;-78
2022/10/28 00:21:54;;;;;;;13.48;7.30;;;14.60;99.90;;;;;;5056656;28;20486;-78
2022/10/28 00:24:20;;;;;;;18.77;7.68;;;14.60;99.90;;;;;;5054159;28;20022;-78
2022/10/28 00:26:45;;;;;;;19.67;7.65;;;14.60;99.90;;;;;;5051474;28;20017;-78
2022/10/28 00:29:16;;;;;;;15.25;7.85;;;14.50;99.90;;;;;;5051647;28;20532;-76
2022/10/28 00:31:43;;;;;;;15.63;6.78;;;14.50;99.90;;;;;;5053333;28;20037;-77
2022/10/28 00:34:15;;;;;;;18.80;7.70;;;14.40;99.90;;;;;;5035373;28;20018;-78
2022/10/28 00:36:43;;;;;;;15.02;8.07;;;14.40;99.90;;;;;;5065520;28;20052;-78
2022/10/28 00:39:20;;;;;;;16.27;7.88;;;14.40;99.90;;;;;;5066458;28;20021;-79
2022/10/28 00:41:48;;;;;;;17.30;8.40;;;14.40;99.90;;;;;;5067740;28;20108;-75
2022/10/28 00:44:36;;;;;;;15.23;8.15;;;14.30;99.90;;;;;;5067608;28;20029;-76
2022/10/28 00:47:04;;;;;;;19.38;8.55;;;14.30;99.90;;;;;;5049480;28;20431;-79
2022/10/28 00:49:33;;;;;;;14.68;7.63;;;14.30;99.90;;;;;;5067592;28;20032;-78
2022/10/28 00:52:03;;;;;;;20.42;8.32;;;14.20;99.90;;;;;;5049788;28;20028;-78
2022/10/28 00:54:30;;;;;;;15.90;7.95;;;14.10;99.90;;;;;;5067589;28;20048;-78
2022/10/28 00:56:58;;;;;;;15.75;8.13;;;14.10;99.90;;;;;;5067402;28;20051;-78
2022/10/28 00:59:28;;;;;;;17.70;8.68;;;14.10;99.90;;;;;;5066797;28;20025;-79
2022/10/28 01:01:54;;;;;;;13.75;8.05;;;14.20;99.90;;;;;;5066034;28;20097;-78
2022/10/28 01:04:21;;;;;;;18.95;8.27;;;14.20;99.90;;;;;;5067256;28;20021;-78
2022/10/28 01:06:47;;;;;;;16.85;8.10;;;14.20;99.90;;;;;;5066283;28;20050;-78
2022/10/28 01:09:13;;;;;;;16.88;8.13;;;14.20;99.90;;;;;;5067013;28;20040;-78
2022/10/28 01:12:18;;;;;;;16.23;7.88;;;14.20;99.90;;;;;;5066839;28;20037;-75
2022/10/28 01:15:15;;;;;;;22.90;7.50;;;14.20;99.90;;;;;;5066739;28;20033;-77
2022/10/28 01:18:25;;;;;;;19.67;8.27;;;14.20;99.90;;;;;;5066934;28;20029;-79
2022/10/28 01:21:08;;;;;;;14.55;7.57;;;14.20;99.90;;;;;;5004578;28;20033;-77
2022/10/28 01:23:37;;;;;;;14.13;7.95;;;14.20;99.90;;;;;;5065904;28;20037;-76
2022/10/28 01:26:31;;;;;;;22.90;8.20;;;14.20;99.90;;;;;;5066893;28;20025;-77
2022/10/28 01:29:24;;;;;;;16.88;8.15;;;14.20;99.90;;;;;;5065057;28;20104;-77
2022/10/28 01:31:53;;;;;;;13.90;7.60;;;14.20;99.90;;;;;;5066747;28;20083;-76
2022/10/28 01:34:31;;;;;;;16.08;7.90;;;14.10;99.90;;;;;;5048191;28;20025;-76
2022/10/28 01:36:59;;;;;;;17.75;7.93;;;14.10;99.90;;;;;;5066594;28;20049;-76
2022/10/28 01:39:32;;;;;;;15.45;8.43;;;14.00;99.90;;;;;;5066794;28;20049;-76
2022/10/28 01:42:06;;;;;;;19.75;9.38;;;14.00;99.90;;;;;;5067048;28;20052;-76
2022/10/28 01:44:51;;;;;;;14.47;8.33;;;13.90;99.90;;;;;;5066696;28;20032;-76
2022/10/28 01:47:17;;;;;;;19.88;9.10;;;13.90;99.90;;;;;;5064362;28;20279;-76
2022/10/28 01:50:06;;;;;;;23.33;8.45;;;13.90;99.90;;;;;;5066017;28;20036;-76
2022/10/28 01:52:32;;;;;;;19.52;7.93;;;13.80;99.90;;;;;;5066574;28;20032;-77
2022/10/28 01:55:19;;;;;;;15.77;7.28;;;13.80;99.90;;;;;;5064956;28;20035;-76
2022/10/28 01:57:47;;;;;;;25.90;8.50;;;13.70;99.90;;;;;;5064730;28;20029;-76
2022/10/28 02:00:16;;;;;;;17.55;7.65;;;13.70;99.90;;;;;;5066311;28;20025;-77
2022/10/28 02:02:43;;;;;;;16.75;8.07;;;13.70;99.90;;;;;;5065985;28;20053;-77
2022/10/28 02:05:37;;;;;;;15.52;8.05;;;13.60;99.90;;;;;;5065787;28;20017;-77
2022/10/28 02:08:14;;;;;;;15.95;7.68;;;13.60;99.90;;;;;;5066230;28;20032;-77
2022/10/28 02:10:49;;;;;;;18.23;7.75;;;13.60;99.90;;;;;;5065426;28;20032;-76
2022/10/28 02:13:18;;;;;;;18.30;8.18;;;13.50;99.90;;;;;;5066141;28;20032;-76
2022/10/28 02:16:10;;;;;;;16.27;9.02;;;13.50;99.90;;;;;;5062162;28;20552;-76
2022/10/28 02:18:46;;;;;;;15.07;8.02;;;13.50;99.90;;;;;;5064317;28;20025;-77
2022/10/28 02:21:28;;;;;;;15.32;7.75;;;13.50;99.90;;;;;;5065569;28;20046;-76
2022/10/28 02:24:27;;;;;;;14.45;7.53;;;13.40;99.90;;;;;;5065472;28;20132;-76
2022/10/28 02:27:21;;;;;;;12.02;7.00;;;13.40;99.90;;;;;;5063870;28;20115;-76
2022/10/28 02:29:53;;;;;;;16.48;8.65;;;13.40;99.90;;;;;;5065325;28;20032;-75
2022/10/28 02:32:23;;;;;;;17.58;8.00;;;13.50;99.90;;;;;;5065412;28;20027;-75
2022/10/28 02:34:54;;;;;;;15.38;8.32;;;13.50;99.90;;;;;;5047238;28;20056;-76
2022/10/28 02:37:29;;;;;;;20.88;8.98;;;13.50;99.90;;;;;;5047418;28;20025;-77
2022/10/28 02:39:59;;;;;;;20.98;7.70;;;13.50;99.90;;;;;;5065064;28;20021;-75
2022/10/28 02:42:36;;;;;;;16.27;8.55;;;13.50;99.90;;;;;;5047396;28;20028;-76
2022/10/28 02:45:18;;;;;;;18.70;8.35;;;13.60;99.90;;;;;;5065462;28;20037;-76
2022/10/28 02:47:53;;;;;;;14.95;8.50;;;13.60;99.90;;;;;;5065097;28;20036;-78
2022/10/28 02:50:24;;;;;;;14.32;9.02;;;13.60;99.90;;;;;;5064994;28;20041;-77
2022/10/28 02:52:55;;;;;;;23.80;9.43;;;13.60;99.90;;;;;;5064877;28;20048;-76
2022/10/28 02:55:24;;;;;;;21.73;9.05;;;13.70;99.90;;;;;;5065267;28;20021;-75
2022/10/28 02:57:50;;;;;;;17.88;8.90;;;13.70;99.90;;;;;;5062744;28;20050;-76
2022/10/28 03:00:21;;;;;;;23.30;8.90;;;13.70;99.90;;;;;;5064622;28;20112;-76
2022/10/28 03:02:47;;;;;;;20.35;9.57;;;13.70;99.90;;;;;;5065050;28;20021;-76
2022/10/28 03:05:13;;;;;;;22.02;8.80;;;13.70;99.90;;;;;;5064841;28;20456;-76
2022/10/28 03:07:39;;;;;;;19.17;8.90;;;13.70;99.90;;;;;;5064580;28;20028;-76
2022/10/28 03:10:05;;;;;;;20.90;9.13;;;13.60;99.90;;;;;;5063679;28;20094;-76
2022/10/28 03:12:31;;;;;;;18.48;8.18;;;13.60;99.90;;;;;;5063576;28;20063;-76
2022/10/28 03:15:00;;;;;;;17.85;8.60;;;13.60;99.90;;;;;;5046883;28;20021;-76
2022/10/28 03:17:26;;;;;;;19.23;8.02;;;13.60;99.90;;;;;;5065478;28;20061;-77
2022/10/28 03:19:52;;;;;;;24.17;8.95;;;13.60;99.90;;;;;;5046878;28;20527;-76
2022/10/28 03:22:17;;;;;;;17.73;8.48;;;13.50;99.90;;;;;;5064350;28;20029;-76
2022/10/28 03:24:43;;;;;;;19.35;8.60;;;13.60;99.90;;;;;;5064866;28;20088;-76
2022/10/28 03:27:08;;;;;;;16.15;8.75;;;13.50;99.90;;;;;;5064351;28;20033;-76
2022/10/28 03:29:34;;;;;;;15.30;8.15;;;13.50;99.90;;;;;;5064670;28;20461;-77
2022/10/28 03:32:00;;;;;;;20.55;8.90;;;13.50;99.90;;;;;;5046688;28;20658;-76
2022/10/28 03:34:25;;;;;;;14.40;8.30;;;13.50;99.90;;;;;;5062339;28;20057;-77
2022/10/28 03:36:51;;;;;;;14.73;8.52;;;13.50;99.90;;;;;;5063307;28;20033;-77
2022/10/28 03:39:17;;;;;;;14.80;8.02;;;13.50;99.90;;;;;;5046546;28;20029;-76
2022/10/28 03:41:42;;;;;;;24.55;8.88;;;13.50;99.90;;;;;;5064009;28;20029;-77
2022/10/28 03:44:08;;;;;;;19.13;8.95;;;13.50;99.90;;;;;;5046277;28;20473;-77
2022/10/28 03:46:34;;;;;;;18.33;7.97;;;13.60;99.90;;;;;;5064587;28;20032;-76
2022/10/28 03:48:59;;;;;;;16.15;8.00;;;13.60;99.90;;;;;;5064092;28;20025;-76
2022/10/28 03:51:25;;;;;;;19.50;8.88;;;13.60;99.90;;;;;;5064248;28;20107;-76
2022/10/28 03:53:50;;;;;;;18.67;8.30;;;13.60;99.90;;;;;;5064623;28;20048;-76
2022/10/28 03:56:16;;;;;;;19.85;9.10;;;13.60;99.90;;;;;;5064083;28;20021;-76
2022/10/28 03:58:42;;;;;;;16.35;8.63;;;13.60;99.90;;;;;;5064123;28;20025;-76
2022/10/28 04:01:07;;;;;;;16.05;8.52;;;13.60;99.90;;;;;;5063980;28;20033;-77
2022/10/28 04:03:33;;;;;;;18.65;8.60;;;13.60;99.90;;;;;;5063995;28;20053;-76
2022/10/28 04:05:59;;;;;;;16.67;7.63;;;13.60;99.90;;;;;;5046338;28;20511;-76
2022/10/28 04:08:24;;;;;;;16.95;8.15;;;13.60;99.90;;;;;;5063806;28;20078;-76
2022/10/28 04:10:50;;;;;;;16.38;8.85;;;13.60;99.90;;;;;;5067983;28;20037;-76
2022/10/28 04:13:16;;;;;;;18.38;8.50;;;13.60;99.90;;;;;;5068170;28;20025;-77
2022/10/28 04:15:42;;;;;;;16.85;8.60;;;13.60;99.90;;;;;;5067971;28;20060;-77
2022/10/28 04:18:08;;;;;;;17.65;8.40;;;13.60;99.90;;;;;;5068024;28;20029;-77
2022/10/28 04:20:35;;;;;;;22.23;8.85;;;13.60;99.90;;;;;;5067846;28;20151;-77
2022/10/28 04:23:00;;;;;;;15.43;8.73;;;13.50;99.90;;;;;;5066607;28;20021;-77
2022/10/28 04:25:26;;;;;;;19.30;8.20;;;13.50;99.90;;;;;;5068181;28;20033;-76
2022/10/28 04:27:53;;;;;;;15.23;8.52;;;13.50;99.90;;;;;;5067800;28;20081;-76
2022/10/28 04:30:19;;;;;;;14.05;8.00;;;13.50;99.90;;;;;;5067512;28;20033;-77
2022/10/28 04:32:45;;;;;;;15.55;8.27;;;13.50;99.90;;;;;;5068003;28;20085;-75
2022/10/28 04:35:12;;;;;;;19.67;8.02;;;13.50;99.90;;;;;;5067382;28;20045;-78
2022/10/28 04:37:39;;;;;;;25.65;8.70;;;13.50;99.90;;;;;;5067459;28;20111;-77
2022/10/28 04:40:05;;;;;;;20.60;9.60;;;13.50;99.90;;;;;;5066385;28;20021;-77
2022/10/28 04:42:31;;;;;;;16.50;9.27;;;13.50;99.90;;;;;;5068016;28;20027;-76
2022/10/28 04:44:57;;;;;;;29.88;10.13;;;13.50;99.90;;;;;;5067393;28;20108;-76
2022/10/28 04:47:22;;;;;;;19.35;9.68;;;13.50;99.90;;;;;;5066401;28;20025;-76
2022/10/28 04:49:48;;;;;;;21.40;10.05;;;13.50;99.90;;;;;;5066610;28;20029;-77
2022/10/28 04:52:14;;;;;;;19.02;8.63;;;13.50;99.90;;;;;;5056009;28;20017;-76
2022/10/28 04:54:40;;;;;;;22.63;9.05;;;13.50;99.90;;;;;;5053046;28;20079;-76
2022/10/28 04:57:06;;;;;;;17.20;9.40;;;13.50;99.90;;;;;;5036440;28;20085;-77
2022/10/28 04:59:32;;;;;;;17.48;8.93;;;13.50;99.90;;;;;;5036147;28;20048;-78
2022/10/28 05:01:58;;;;;;;21.77;8.32;;;13.50;99.90;;;;;;5055061;28;20021;-77
2022/10/28 05:04:23;;;;;;;18.70;8.75;;;13.50;99.90;;;;;;5054169;28;20064;-76
2022/10/28 05:06:49;;;;;;;20.00;10.80;;;13.40;99.90;;;;;;5054228;28;20044;-77
2022/10/28 05:09:14;;;;;;;20.13;9.98;;;13.40;99.90;;;;;;5052900;28;20127;-76
2022/10/28 05:11:40;;;;;;;23.23;9.20;;;13.40;99.90;;;;;;5035874;28;20040;-77
2022/10/28 05:14:06;;;;;;;19.02;9.50;;;13.30;99.90;;;;;;5054756;28;20024;-76
2022/10/28 05:16:32;;;;;;;18.55;9.07;;;13.30;99.90;;;;;;5054960;28;20121;-78
2022/10/28 05:18:58;;;;;;;18.00;9.68;;;13.30;99.90;;;;;;5054005;28;20028;-77
2022/10/28 05:21:23;;;;;;;16.60;9.60;;;13.20;99.90;;;;;;5052908;28;20041;-77
2022/10/28 05:23:49;;;;;;;16.92;9.60;;;13.20;99.90;;;;;;5054316;28;20056;-77
2022/10/28 05:26:15;;;;;;;20.10;10.07;;;13.10;99.90;;;;;;5053449;28;20109;-77
2022/10/28 05:28:41;;;;;;;22.02;10.90;;;13.00;99.90;;;;;;5054322;28;20080;-76
2022/10/28 05:31:07;;;;;;;22.85;10.85;;;13.00;99.90;;;;;;5053685;28;20056;-76
2022/10/28 05:33:33;;;;;;;28.42;12.23;;;13.00;99.90;;;;;;5052463;28;20030;-77
2022/10/28 06:39:19;;;;;;;23.60;9.93;;;12.90;99.90;;;;;;5008446;28;20056;-78
2022/10/28 06:41:45;;;;;;;20.98;8.98;;;13.00;99.90;;;;;;5004640;28;20068;-79
2022/10/28 06:44:30;;;;;;;22.48;10.68;;;13.00;99.90;;;;;;4983598;28;20034;-79
2022/10/28 06:46:56;;;;;;;35.03;11.10;;;13.00;99.90;;;;;;4979250;28;20081;-79
2022/10/28 06:49:23;;;;;;;21.00;10.00;;;13.00;99.90;;;;;;4978922;28;20031;-78
2022/10/28 06:51:48;;;;;;;21.50;10.20;;;13.10;99.90;;;;;;4982104;28;20038;-78
2022/10/28 06:54:14;;;;;;;26.05;10.05;;;13.10;99.90;;;;;;4979542;28;20036;-79
2022/10/28 06:56:40;;;;;;;26.70;9.85;;;13.10;99.90;;;;;;4994702;28;20073;-79
2022/10/28 06:59:06;;;;;;;20.70;9.40;;;13.10;99.90;;;;;;4999487;28;20812;-81
2022/10/28 07:01:32;;;;;;;21.23;9.98;;;13.20;99.90;;;;;;4988452;28;20041;-77
2022/10/28 07:03:57;;;;;;;19.98;9.02;;;13.20;99.90;;;;;;4979527;28;20030;-78
2022/10/28 07:06:23;;;;;;;20.25;9.32;;;13.30;99.90;;;;;;4977604;28;20034;-78
2022/10/28 07:08:50;;;;;;;17.13;9.38;;;13.30;99.90;;;;;;4996546;28;20027;-78
2022/10/28 07:11:17;;;;;;;25.05;9.63;;;13.40;99.90;;;;;;4980504;28;20050;-79
2022/10/28 07:13:43;;;;;;;19.75;10.15;;;13.40;99.90;;;;;;5004625;28;20023;-81
2022/10/28 07:16:08;;;;;;;18.35;10.35;;;13.50;99.90;;;;;;4978867;28;20039;-80
2022/10/28 07:18:34;;;;;;;22.85;10.20;;;13.60;99.90;;;;;;4989353;28;20026;-78
2022/10/28 07:21:01;;;;;;;22.27;9.45;;;13.60;99.90;;;;;;4983369;28;20035;-80
2022/10/28 07:23:27;;;;;;;18.17;9.13;;;13.70;99.90;;;;;;4987062;28;20030;-82
2022/10/28 07:25:54;;;;;;;22.13;10.35;;;13.70;99.90;;;;;;4996572;28;20037;-79
2022/10/28 07:28:22;;;;;;;21.20;10.90;;;13.80;99.90;;;;;;5002040;28;20026;-77
2022/10/28 07:30:48;;;;;;;24.80;10.43;;;13.80;99.90;;;;;;5003834;28;20169;-80
2022/10/28 07:33:13;;;;;;;20.08;9.40;;;13.90;99.90;;;;;;4983535;28;20034;-79
2022/10/28 07:35:40;;;;;;;18.52;9.77;;;14.00;99.90;;;;;;4984512;28;20034;-80
2022/10/28 07:38:05;;;;;;;26.10;10.55;;;14.00;99.90;;;;;;4981359;28;20126;-78
2022/10/28 07:40:36;;;;;;;27.90;11.07;;;14.10;99.90;;;;;;4983080;28;20031;-80
2022/10/28 07:43:02;;;;;;;22.20;9.43;;;14.20;99.90;;;;;;4978967;28;20055;-81
2022/10/28 07:45:28;;;;;;;21.63;9.25;;;14.30;99.90;;;;;;4977624;28;20443;-80
2022/10/28 07:47:54;;;;;;;22.27;9.43;;;14.40;99.90;;;;;;4984552;28;20031;-79
2022/10/28 07:50:19;;;;;;;17.30;8.73;;;14.50;99.90;;;;;;4983132;28;20042;-78
2022/10/28 07:52:45;;;;;;;21.17;8.63;;;14.50;99.90;;;;;;4967700;28;20029;-79
2022/10/28 07:55:12;;;;;;;17.55;7.38;;;14.60;99.90;;;;;;4964832;28;20095;-81
2022/10/28 07:57:38;;;;;;;18.88;7.95;;;14.70;99.90;;;;;;4983590;28;20053;-79
2022/10/28 08:00:05;;;;;;;20.33;7.32;;;14.80;99.90;;;;;;4964912;28;20516;-79
2022/10/28 08:02:30;;;;;;;12.70;6.97;;;15.00;99.90;;;;;;4984732;28;20038;-80
2022/10/28 08:04:56;;;;;;;19.48;7.78;;;15.20;99.90;;;;;;4962432;28;20045;-78
2022/10/28 08:07:22;;;;;;;18.08;7.55;;;15.30;99.90;;;;;;4982150;28;20116;-79
2022/10/28 08:09:47;;;;;;;15.60;7.75;;;15.50;99.90;;;;;;4982948;28;20031;-78
2022/10/28 08:12:14;;;;;;;15.30;7.22;;;15.60;99.90;;;;;;4983337;28;20038;-78
2022/10/28 08:14:40;;;;;;;22.75;7.47;;;15.70;99.90;;;;;;4984498;28;20066;-79
2022/10/28 08:17:06;;;;;;;17.00;7.18;;;15.70;99.90;;;;;;4983713;28;20082;-79
2022/10/28 08:19:32;;;;;;;19.58;7.10;;;15.70;99.90;;;;;;4984551;28;20502;-78
2022/10/28 08:21:58;;;;;;;23.02;7.85;;;15.70;99.90;;;;;;4983518;28;20062;-78
2022/10/28 08:24:26;;;;;;;15.05;7.30;;;15.80;99.90;;;;;;4984118;28;20042;-81
2022/10/28 08:26:51;;;;;;;22.48;6.97;;;15.80;99.90;;;;;;4966804;28;20035;-78
2022/10/28 08:29:18;;;;;;;18.48;7.22;;;15.90;99.90;;;;;;4982809;28;20038;-80
2022/10/28 08:31:44;;;;;;;18.70;6.78;;;15.90;99.90;;;;;;4966928;28;20104;-78
2022/10/28 08:34:10;;;;;;;19.45;7.03;;;16.10;99.90;;;;;;4980632;28;20124;-81
2022/10/28 08:36:35;;;;;;;15.07;6.47;;;16.20;99.90;;;;;;4964280;28;20047;-78
2022/10/28 08:39:01;;;;;;;20.98;6.75;;;16.40;99.90;;;;;;4970905;28;20118;-80
2022/10/28 08:41:35;;;;;;;13.73;6.80;;;16.60;99.90;;;;;;4975981;28;20078;-78
2022/10/28 08:44:03;;;;;;;12.57;6.00;;;16.60;99.90;;;;;;4966617;28;20062;-80
2022/10/28 08:46:58;;;;;;;19.80;6.80;;;16.70;99.90;;;;;;4964067;28;20415;-79
2022/10/28 08:49:25;;;;;;;21.52;6.40;;;16.70;99.90;;;;;;4983972;28;20057;-77
2022/10/28 08:52:00;;;;;;;18.20;6.78;;;16.80;99.90;;;;;;4982642;28;20051;-76
2022/10/28 08:54:29;;;;;;;;;;;16.90;99.90;;;;;;4983279;28;20046;-80
2022/10/28 08:57:02;;;;;;;12.65;5.85;;;17.20;99.90;;;;;;4983000;28;19917;-78
2022/10/28 08:59:35;;;;;;;12.75;6.07;;;17.30;99.90;;;;;;4982220;28;20035;-77
2022/10/28 09:02:21;;;;;;;15.40;6.60;;;17.30;99.90;;;;;;4966239;28;20026;-78
2022/10/28 09:04:52;;;;;;;14.20;6.75;;;17.40;99.90;;;;;;4983119;28;20081;-78
2022/10/28 09:07:20;;;;;;;16.90;6.78;;;17.40;99.90;;;;;;4967406;28;20041;-81
2022/10/28 09:09:49;;;;;;;15.55;6.88;;;17.40;99.90;;;;;;4981963;28;20118;-82
2022/10/28 09:12:15;;;;;;;13.27;7.07;;;17.50;99.90;;;;;;4969397;28;20027;-79
2022/10/28 09:14:59;;;;;;;19.00;6.47;;;17.50;99.90;;;;;;4987819;28;21055;-78
2022/10/28 09:17:25;;;;;;;16.15;6.95;;;17.60;99.90;;;;;;4970109;28;20386;-79
2022/10/28 09:20:16;;;;;;;14.10;6.10;;;17.70;99.90;;;;;;4987889;28;20027;-80
2022/10/28 09:23:01;;;;;;;14.57;6.75;;;17.70;99.90;;;;;;4986862;28;20037;-78
2022/10/28 09:25:50;;;;;;;19.40;7.13;;;17.70;99.90;;;;;;4970264;28;20035;-82
2022/10/28 09:28:53;;;;;;;16.98;7.10;;;17.80;99.90;;;;;;4988101;28;20046;-78
2022/10/28 09:31:34;;;;;;;12.25;6.50;;;17.90;99.90;;;;;;4969580;28;20066;-81
2022/10/28 09:34:26;;;;;;;22.10;6.47;;;18.00;99.90;;;;;;4970857;28;20035;-78
2022/10/28 09:36:59;;;;;;;24.00;6.80;;;18.20;99.90;;;;;;4969594;28;20035;-77
2022/10/28 09:39:40;;;;;;;16.02;6.60;;;18.30;99.90;;;;;;4969759;28;20070;-80
2022/10/28 09:42:11;;;;;;;29.25;6.63;;;18.40;99.90;;;;;;4976439;28;20089;-75
2022/10/28 09:44:48;;;;;;;21.85;6.43;;;18.50;99.90;;;;;;4985303;28;20027;-80
2022/10/28 09:47:21;;;;;;;17.73;6.22;;;18.60;99.90;;;;;;4969583;28;20031;-76
2022/10/28 09:49:50;;;;;;;20.13;6.13;;;18.70;99.90;;;;;;4969289;28;20034;-77
2022/10/28 09:52:21;;;;;;;20.75;5.88;;;18.90;99.90;;;;;;4969456;28;20125;-77
2022/10/28 09:54:52;;;;;;;14.43;5.35;;;19.00;99.90;;;;;;4970027;28;20030;-79
2022/10/28 09:57:19;;;;;;;29.55;5.82;;;19.10;99.90;;;;;;4969918;28;20078;-80
2022/10/28 09:59:45;;;;;;;16.35;5.38;;;19.20;99.90;;;;;;4967520;28;20034;-77
2022/10/28 10:02:39;;;;;;;22.05;5.32;;;19.30;99.90;;;;;;4969260;28;20050;-76
2022/10/28 10:05:11;;;;;;;18.52;4.82;;;19.40;99.90;;;;;;4976935;28;20042;-75
2022/10/28 10:07:47;;;;;;;18.27;5.13;;;19.40;99.90;;;;;;4972951;28;20070;-74
2022/10/28 10:10:19;;;;;;;16.45;5.47;;;19.50;99.90;;;;;;4967606;28;20082;-74
2022/10/28 10:12:48;;;;;;;17.52;5.07;;;19.50;99.90;;;;;;4964099;28;20038;-77
2022/10/28 10:15:30;;;;;;;16.98;5.05;;;19.60;99.90;;;;;;4982398;28;20119;-75
2022/10/28 10:17:59;;;;;;;28.48;4.95;;;19.70;99.90;;;;;;4968978;28;20030;-77
2022/10/28 10:20:25;;;;;;;15.00;4.78;;;19.70;99.90;;;;;;4984026;28;20031;-77
2022/10/28 10:22:51;;;;;;;17.02;5.20;;;19.80;99.90;;;;;;4976825;28;20035;-79
2022/10/28 10:25:17;;;;;;;23.17;5.50;;;19.90;99.90;;;;;;4968184;28;20035;-76
2022/10/28 10:27:53;;;;;;;16.70;4.70;;;20.00;99.90;;;;;;4959381;28;20027;-76
2022/10/28 10:30:47;;;;;;;17.80;5.03;;;20.10;99.90;;;;;;4952709;28;20069;-76
2022/10/28 10:33:29;;;;;;;14.13;4.22;;;20.30;99.90;;;;;;4974871;28;20035;-74
2022/10/28 10:36:00;;;;;;;17.52;4.68;;;20.50;99.90;;;;;;4959798;28;20051;-79
2022/10/28 10:38:27;;;;;;;25.48;5.55;;;20.60;99.90;;;;;;4964576;28;20050;-78
2022/10/28 10:40:54;;;;;;;17.15;4.60;;;20.70;99.90;;;;;;4985883;28;20028;-78
2022/10/28 10:43:30;;;;;;;14.75;4.60;;;20.80;99.90;;;;;;4979553;28;20039;-76
2022/10/28 10:46:02;;;;;;;18.70;4.82;;;20.80;99.90;;;;;;4960797;28;20031;-78
2022/10/28 10:48:35;;;;;;;14.13;4.70;;;20.90;99.90;;;;;;4977017;28;20019;-76
2022/10/28 10:51:26;;;;;;;15.27;4.18;;;20.90;99.90;;;;;;4962894;28;20376;-78
2022/10/28 10:53:56;;;;;;;15.93;4.85;;;20.90;99.90;;;;;;4961400;28;20123;-78
2022/10/28 10:56:32;;;;;;;13.60;5.07;;;20.80;99.90;;;;;;4960449;28;20053;-78
2022/10/28 10:59:01;;;;;;;17.63;4.97;;;20.80;99.90;;;;;;4963092;28;20050;-78
2022/10/28 11:01:33;;;;;;;16.83;5.32;;;20.80;99.90;;;;;;4972700;28;20027;-80
2022/10/28 11:04:02;;;;;;;17.10;4.97;;;20.80;99.90;;;;;;4981148;28;20026;-77
2022/10/28 11:06:36;;;;;;;27.73;5.38;;;20.80;99.90;;;;;;4984239;28;20113;-81
2022/10/28 11:09:03;;;;;;;;;;;20.80;99.90;;;;;;4968140;28;20041;-78
2022/10/28 11:11:36;;;;;;;23.08;5.32;;;20.80;99.90;;;;;;4967896;28;19922;-78
2022/10/28 11:14:24;;;;;;;19.67;5.45;;;20.90;99.90;;;;;;4968160;28;20027;-78
2022/10/28 11:16:52;;;;;;;21.33;5.50;;;21.00;99.90;;;;;;4985516;28;20042;-77
2022/10/28 11:19:27;;;;;;;21.15;5.38;;;21.20;99.90;;;;;;4961185;28;20062;-79
2022/10/28 11:21:58;;;;;;;;;;;21.20;99.90;;;;;;4985606;28;20023;-78
2022/10/28 11:24:44;;;;;;;15.15;5.30;;;21.20;99.90;;;;;;4967897;28;20350;-78
2022/10/28 11:27:28;;;;;;;25.13;5.85;;;21.40;99.90;;;;;;4985348;28;20034;-78
2022/10/28 11:29:54;;;;;;;16.23;5.63;;;21.30;99.90;;;;;;4984625;28;20076;-78
2022/10/28 11:32:41;;;;;;;22.77;5.43;;;21.30;99.90;;;;;;4985359;28;20045;-75
2022/10/28 11:35:25;;;;;;;18.08;5.82;;;21.30;99.90;;;;;;4985310;28;20089;-78
2022/10/28 11:37:58;;;;;;;23.73;5.55;;;21.30;99.90;;;;;;4961921;28;20058;-76
2022/10/28 11:40:36;;;;;;;15.80;5.07;;;21.60;99.90;;;;;;4984683;28;20105;-76
2022/10/28 11:43:28;;;;;;;23.05;5.63;;;21.90;99.90;;;;;;4967277;28;20102;-80
2022/10/28 11:46:03;;;;;;;13.48;5.40;;;22.10;99.90;;;;;;4956755;28;20051;-79
2022/10/28 11:48:50;;;;;;;13.93;5.47;;;22.50;99.90;;;;;;4984942;28;20058;-77
2022/10/28 11:51:41;;;;;;;21.02;5.57;;;23.10;99.90;;;;;;4982788;28;20086;-79
2022/10/28 11:54:26;;;;;;;20.50;4.93;;;23.20;99.90;;;;;;4980593;28;20089;-76
2022/10/28 11:57:15;;;;;;;17.15;4.80;;;23.30;99.90;;;;;;4982199;28;20039;-78
2022/10/28 12:00:11;;;;;;;21.30;5.10;;;23.40;99.90;;;;;;4981433;28;20045;-77
2022/10/28 12:03:15;;;;;;;26.25;5.20;;;23.70;99.90;;;;;;4982464;28;21972;-77
2022/10/28 12:05:51;;;;;;;30.88;5.43;;;23.90;99.90;;;;;;4983715;28;20038;-75
2022/10/28 12:08:32;;;;;;;19.08;4.85;;;23.60;99.90;;;;;;4977432;28;20027;-78
2022/10/28 12:11:44;;;;;;;13.70;4.57;;;23.20;99.90;;;;;;4991253;28;20035;-77
2022/10/28 12:14:28;;;;;;;14.73;4.78;;;22.90;99.90;;;;;;4944321;28;20035;-78
2022/10/28 12:17:03;;;;;;;26.90;5.30;;;22.60;99.90;;;;;;4982228;28;20054;-81
2022/10/28 12:19:36;;;;;;;15.40;4.80;;;22.50;99.90;;;;;;4982239;28;20114;-78
2022/10/28 12:22:10;;;;;;;19.85;5.72;;;22.50;99.90;;;;;;4964475;28;20094;-77
2022/10/28 12:24:37;;;;;;;19.63;4.90;;;22.30;99.90;;;;;;4980785;28;20114;-73
2022/10/28 12:27:14;;;;;;;22.00;5.60;;;22.20;99.90;;;;;;4982401;28;20039;-77
2022/10/28 12:29:46;;;;;;;25.52;5.75;;;22.10;99.90;;;;;;4981389;28;20034;-77
2022/10/28 12:32:22;;;;;;;20.83;5.78;;;22.00;99.90;;;;;;4987678;28;20045;-78
2022/10/28 12:34:59;;;;;;;19.48;5.30;;;21.90;99.90;;;;;;4968872;28;20035;-78
2022/10/28 12:37:37;;;;;;;17.08;5.60;;;21.80;99.90;;;;;;4970460;28;20422;-77
2022/10/28 12:40:06;;;;;;;28.30;6.25;;;21.80;99.90;;;;;;4968459;28;20098;-77
2022/10/28 12:42:46;;;;;;;19.63;5.13;;;21.70;99.90;;;;;;4985668;28;20031;-77
2022/10/28 12:45:16;;;;;;;11.90;4.80;;;21.60;99.90;;;;;;4968500;28;20039;-76
2022/10/28 12:48:05;;;;;;;22.88;5.72;;;21.60;99.90;;;;;;4990921;28;20054;-76
2022/10/28 12:50:34;;;;;;;21.27;5.70;;;21.50;99.90;;;;;;4989483;28;20046;-78
2022/10/28 12:53:27;;;;;;;15.98;5.03;;;21.40;99.90;;;;;;4986393;28;20467;-77
2022/10/28 12:56:01;;;;;;;28.95;5.85;;;21.30;99.90;;;;;;4965387;28;20065;-77
2022/10/28 12:58:45;;;;;;;17.60;5.22;;;21.30;99.90;;;;;;4968635;28;20035;-77
2022/10/28 13:01:14;;;;;;;24.20;5.18;;;21.20;99.90;;;;;;4949586;29;20083;-77
2022/10/28 13:03:40;;;;;;;24.10;5.57;;;21.20;99.90;;;;;;4967410;29;20054;-76
2022/10/28 13:06:30;;;;;;;18.80;5.20;;;21.10;99.90;;;;;;4967301;28;20114;-77
2022/10/28 13:09:05;;;;;;;19.35;5.68;;;21.10;99.90;;;;;;4967648;29;20035;-77
2022/10/28 13:11:52;;;;;;;24.70;5.88;;;21.10;99.90;;;;;;4971414;28;20046;-77
2022/10/28 13:14:44;;;;;;;25.95;5.72;;;21.10;99.90;;;;;;4985326;28;20154;-77
2022/10/28 13:17:40;;;;;;;17.23;5.13;;;21.10;99.90;;;;;;4987346;28;20030;-77
2022/10/28 13:20:37;;;;;;;28.35;5.95;;;21.10;99.90;;;;;;4986760;28;20407;-76
2022/10/28 13:23:25;;;;;;;17.67;5.18;;;21.10;99.90;;;;;;4969671;28;20061;-77
2022/10/28 13:26:11;;;;;;;18.25;5.57;;;21.00;99.90;;;;;;4986843;28;20030;-78
2022/10/28 13:28:47;;;;;;;27.98;5.40;;;21.00;99.90;;;;;;4986143;28;20488;-76
2022/10/28 13:31:14;;;;;;;16.40;5.65;;;21.00;99.90;;;;;;4969792;28;20549;-77
2022/10/28 13:33:54;;;;;;;21.30;6.05;;;21.00;99.90;;;;;;4983934;28;20023;-76
2022/10/28 13:36:41;;;;;;;25.58;5.35;;;21.00;99.90;;;;;;4966586;28;20117;-78
2022/10/28 13:39:28;;;;;;;17.65;5.43;;;21.00;99.90;;;;;;4966405;29;20054;-77
2022/10/28 13:42:12;;;;;;;21.70;5.38;;;21.00;99.90;;;;;;4950445;28;20483;-77
2022/10/28 13:45:02;;;;;;;21.35;5.80;;;21.00;99.90;;;;;;4984206;28;20031;-76
2022/10/28 13:47:29;;;;;;;24.60;6.28;;;21.00;99.90;;;;;;4986527;28;20030;-77
2022/10/28 13:50:09;;;;;;;16.60;5.35;;;21.00;99.90;;;;;;4982394;28;20022;-77
2022/10/28 13:52:43;;;;;;;22.08;5.82;;;21.00;99.90;;;;;;4984461;28;20078;-77
2022/10/28 13:55:23;;;;;;;26.70;5.50;;;20.90;99.90;;;;;;4985344;28;20031;-77
2022/10/28 13:57:56;;;;;;;15.50;6.43;;;20.90;99.90;;;;;;4983452;28;20055;-77
2022/10/28 14:00:22;;;;;;;27.02;6.03;;;20.90;99.90;;;;;;4978968;28;20031;-77
2022/10/28 14:02:54;;;;;;;14.57;5.47;;;21.00;99.90;;;;;;4983887;28;20023;-77
2022/10/28 14:05:43;;;;;;;15.63;5.65;;;21.10;99.90;;;;;;4985505;28;20086;-77
2022/10/28 14:08:25;;;;;;;22.92;5.95;;;21.10;99.90;;;;;;4967265;28;20030;-76